createdAt,value
2023-01-09T00:02:23.761Z,1.23
2023-01-09T00:04:50.916Z,1.20
2023-01-09T00:07:19.400Z,1.17
2023-01-09T00:09:46.521Z,1.10
2023-01-09T00:12:13.631Z,1.10
2023-01-09T00:14:40.720Z,0.87
2023-01-09T00:17:07.839Z,0.90
2023-01-09T00:19:34.938Z,0.80
2023-01-09T00:22:02.120Z,0.80
2023-01-09T00:24:30.555Z,0.70
2023-01-09T00:26:57.681Z,0.77
2023-01-09T00:29:24.853Z,0.60
2023-01-09T00:31:52.047Z,0.60
2023-01-09T00:34:19.184Z,0.53
2023-01-09T00:36:46.363Z,0.60
2023-01-09T00:39:13.530Z,0.60
2023-01-09T00:41:43.749Z,0.57
2023-01-09T00:44:20.938Z,0.60
2023-01-09T00:46:49.224Z,0.60
2023-01-09T00:49:17.474Z,0.67
2023-01-09T00:51:44.617Z,0.73
2023-01-09T00:54:12.607Z,0.93
2023-01-09T00:56:39.851Z,1.03
2023-01-09T00:59:08.646Z,0.90
2023-01-09T01:01:36.175Z,1.10
2023-01-09T01:04:03.401Z,0.93
2023-01-09T01:06:30.492Z,0.70
2023-01-09T01:08:57.622Z,0.93
2023-01-09T01:11:24.711Z,1.10
2023-01-09T01:13:51.905Z,1.13
2023-01-09T01:16:20.475Z,1.07
2023-01-09T01:18:47.662Z,1.20
2023-01-09T01:21:15.028Z,0.80
2023-01-09T01:23:42.143Z,0.70
2023-01-09T01:26:10.347Z,0.80
2023-01-09T01:28:37.526Z,0.80
2023-01-09T01:31:04.933Z,0.70
2023-01-09T01:33:33.524Z,0.70
2023-01-09T01:36:01.641Z,0.60
2023-01-09T01:38:29.241Z,0.80
2023-01-09T01:40:56.684Z,0.70
2023-01-09T01:43:23.899Z,0.80
2023-01-09T01:45:51.051Z,0.60
2023-01-09T01:48:20.201Z,0.60
2023-01-09T01:50:50.762Z,0.70
2023-01-09T01:53:20.349Z,0.80
2023-01-09T01:55:51.727Z,0.70
2023-01-09T01:58:19.262Z,0.80
2023-01-09T02:00:48.241Z,0.70
2023-01-09T02:03:16.386Z,0.80
2023-01-09T02:05:43.690Z,0.77
2023-01-09T02:08:12.392Z,0.70
2023-01-09T02:10:40.244Z,0.70
2023-01-09T02:13:07.802Z,0.90
2023-01-09T02:15:37.094Z,0.80
2023-01-09T02:18:18.768Z,0.80
2023-01-09T02:20:53.154Z,1.20
2023-01-09T02:23:41.467Z,0.80
2023-01-09T02:26:21.242Z,0.97
2023-01-09T02:29:06.834Z,0.90
2023-01-09T02:31:38.155Z,1.00
2023-01-09T02:34:10.588Z,0.80
2023-01-09T02:36:41.847Z,0.77
2023-01-09T02:39:16.477Z,1.00
2023-01-09T02:41:45.797Z,1.20
2023-01-09T02:44:15.373Z,1.53
2023-01-09T02:46:43.818Z,1.10
2023-01-09T02:49:11.195Z,1.47
2023-01-09T02:51:41.302Z,1.83
2023-01-09T02:54:22.172Z,1.70
2023-01-09T02:56:58.889Z,1.70
2023-01-09T02:59:29.510Z,1.80
2023-01-09T03:02:04.444Z,1.57
2023-01-09T03:04:36.921Z,1.67
2023-01-09T03:07:08.885Z,1.60
2023-01-09T03:09:37.891Z,1.80
2023-01-09T03:12:08.581Z,1.60
2023-01-09T03:14:36.204Z,1.67
2023-01-09T03:17:06.602Z,1.63
2023-01-09T03:19:34.912Z,2.00
2023-01-09T03:22:02.484Z,1.40
2023-01-09T03:24:29.612Z,1.87
2023-01-09T03:26:56.836Z,1.70
2023-01-09T03:29:23.988Z,2.00
2023-01-09T03:31:51.118Z,1.83
2023-01-09T03:34:19.585Z,2.27
2023-01-09T03:36:46.687Z,1.97
2023-01-09T03:39:13.818Z,1.90
2023-01-09T03:41:40.885Z,2.07
2023-01-09T03:44:08.063Z,1.87
2023-01-09T03:46:35.185Z,1.90
2023-01-09T03:49:03.080Z,2.30
2023-01-09T03:51:31.560Z,2.57
2023-01-09T03:53:58.650Z,2.00
2023-01-09T03:56:25.776Z,2.00
2023-01-09T03:58:52.886Z,1.90
2023-01-09T04:01:20.192Z,1.67
2023-01-09T04:03:47.401Z,1.97
2023-01-09T04:06:14.591Z,1.93
2023-01-09T04:08:43.033Z,2.10
2023-01-09T04:11:10.148Z,1.67
2023-01-09T04:13:37.243Z,1.43
2023-01-09T04:16:04.530Z,1.50
2023-01-09T04:18:31.788Z,2.03
2023-01-09T04:20:58.905Z,1.60
2023-01-09T04:23:26.045Z,1.40
2023-01-09T04:25:54.547Z,1.63
2023-01-09T04:28:21.696Z,1.80
2023-01-09T04:30:48.839Z,1.80
2023-01-09T04:33:15.973Z,1.87
2023-01-09T04:35:43.106Z,1.70
2023-01-09T04:38:10.272Z,1.83
2023-01-09T04:40:37.397Z,1.50
2023-01-09T04:43:05.926Z,1.40
2023-01-09T04:45:33.087Z,1.70
2023-01-09T04:48:00.218Z,2.00
2023-01-09T04:50:27.383Z,1.90
2023-01-09T04:52:54.482Z,1.80
2023-01-09T04:55:21.598Z,1.57
2023-01-09T04:57:48.738Z,2.00
2023-01-09T05:00:17.575Z,1.83
2023-01-09T05:02:44.688Z,1.57
2023-01-09T05:05:12.177Z,2.10
2023-01-09T05:07:39.560Z,1.70
2023-01-09T05:10:07.417Z,2.20
2023-01-09T05:12:34.541Z,1.47
2023-01-09T05:15:01.649Z,2.00
2023-01-09T05:17:30.817Z,1.90
2023-01-09T05:19:57.927Z,1.87
2023-01-09T05:22:25.056Z,1.53
2023-01-09T05:24:52.162Z,1.93
2023-01-09T05:27:19.330Z,1.50
2023-01-09T05:29:46.411Z,2.10
2023-01-09T05:32:13.539Z,1.80
2023-01-09T05:34:41.982Z,2.13
2023-01-09T05:37:09.103Z,1.67
2023-01-09T05:39:36.183Z,1.80
2023-01-09T05:42:03.327Z,1.93
2023-01-09T05:44:30.444Z,1.57
2023-01-09T05:46:57.590Z,1.70
2023-01-09T05:49:24.707Z,1.47
2023-01-09T05:51:53.172Z,1.63
2023-01-09T05:54:20.283Z,1.30
2023-01-09T05:56:47.380Z,1.80
2023-01-09T05:59:14.496Z,2.03
2023-01-09T06:01:41.614Z,1.87
2023-01-09T06:04:08.738Z,1.50
2023-01-09T06:06:35.847Z,1.77
2023-01-09T06:09:04.428Z,1.60
2023-01-09T06:11:31.544Z,1.43
2023-01-09T06:13:58.663Z,1.77
2023-01-09T06:16:25.787Z,1.93
2023-01-09T06:18:52.984Z,1.07
2023-01-09T06:21:20.083Z,2.03
2023-01-09T06:23:47.222Z,1.70
2023-01-09T06:26:15.709Z,1.73
2023-01-09T06:28:44.629Z,1.53
2023-01-09T06:31:12.017Z,1.60
2023-01-09T06:33:39.467Z,2.00
2023-01-09T06:36:06.815Z,1.63
2023-01-09T06:38:34.002Z,1.40
2023-01-09T06:41:01.129Z,1.60
2023-01-09T06:43:29.604Z,1.50
2023-01-09T06:45:56.825Z,1.30
2023-01-09T06:48:23.980Z,1.30
2023-01-09T06:50:51.330Z,1.23
2023-01-09T06:53:18.475Z,2.30
2023-01-09T06:55:45.845Z,1.30
2023-01-09T06:58:13.079Z,1.50
2023-01-09T07:00:41.536Z,1.97
2023-01-09T07:03:08.729Z,1.23
2023-01-09T07:05:38.964Z,1.30
2023-01-09T07:08:06.154Z,1.60
2023-01-09T07:10:33.293Z,1.10
2023-01-09T07:13:00.417Z,2.13
2023-01-09T07:15:27.537Z,1.60
2023-01-09T07:17:56.017Z,1.13
2023-01-09T07:20:23.138Z,1.20
2023-01-09T07:22:50.269Z,1.43
2023-01-09T07:25:17.543Z,1.17
2023-01-09T07:27:44.870Z,1.60
2023-01-09T07:30:12.617Z,1.50
2023-01-09T07:32:39.756Z,1.40
2023-01-09T07:35:09.513Z,1.50
2023-01-09T07:37:36.995Z,1.60
2023-01-09T07:40:04.339Z,1.63
2023-01-09T07:42:31.535Z,1.10
2023-01-09T07:44:58.668Z,1.83
2023-01-09T07:47:25.831Z,1.30
2023-01-09T07:49:52.942Z,1.57
2023-01-09T07:52:21.443Z,1.70
2023-01-09T07:54:48.552Z,2.03
2023-01-09T07:57:15.670Z,1.73
2023-01-09T07:59:42.761Z,1.77
2023-01-09T08:02:10.024Z,1.57
2023-01-09T08:04:37.175Z,1.83
2023-01-09T08:07:04.538Z,1.67
2023-01-09T08:09:32.996Z,2.40
2023-01-09T08:12:00.136Z,2.10
2023-01-09T08:14:27.258Z,1.80
2023-01-09T08:16:54.402Z,1.63
2023-01-09T08:19:21.521Z,1.70
2023-01-09T08:21:48.650Z,1.97
2023-01-09T08:24:15.764Z,1.90
2023-01-09T08:26:44.225Z,2.03
2023-01-09T08:29:11.433Z,1.90
2023-01-09T08:31:38.762Z,1.30
2023-01-09T08:34:05.897Z,1.67
2023-01-09T08:36:33.099Z,2.03
2023-01-09T08:39:00.223Z,1.77
2023-01-09T08:41:27.305Z,1.80
2023-01-09T08:43:55.763Z,1.50
2023-01-09T08:46:22.965Z,1.77
2023-01-09T08:48:50.102Z,1.60
2023-01-09T08:51:17.234Z,1.80
2023-01-09T08:53:44.390Z,2.10
2023-01-09T08:56:11.499Z,1.50
2023-01-09T08:58:38.612Z,1.50
2023-01-09T09:01:08.282Z,1.80
2023-01-09T09:03:35.444Z,2.00
2023-01-09T09:06:02.829Z,2.10
2023-01-09T09:08:29.978Z,1.73
2023-01-09T09:10:57.103Z,1.17
2023-01-09T09:13:24.234Z,1.80
2023-01-09T09:15:51.452Z,2.40
2023-01-09T09:18:19.967Z,1.60
2023-01-09T09:20:47.088Z,1.63
2023-01-09T09:23:14.208Z,2.00
2023-01-09T09:25:41.359Z,1.80
2023-01-09T09:28:08.487Z,1.43
2023-01-09T09:30:36.625Z,2.50
2023-01-09T09:33:04.246Z,2.00
2023-01-09T09:35:32.769Z,1.80
2023-01-09T09:38:01.582Z,2.73
2023-01-09T09:40:37.602Z,1.50
2023-01-09T09:43:28.531Z,1.63
2023-01-09T09:45:59.095Z,1.73
2023-01-09T09:48:33.645Z,2.30
2023-01-09T09:51:10.732Z,1.93
2023-01-09T09:53:40.228Z,1.67
2023-01-09T09:56:10.347Z,1.63
2023-01-09T09:58:38.185Z,2.00
2023-01-09T10:01:06.249Z,2.53
2023-01-09T10:03:34.916Z,1.50
2023-01-09T10:06:05.282Z,1.63
2023-01-09T10:08:37.535Z,1.93
2023-01-09T10:11:05.387Z,1.47
2023-01-09T10:13:32.716Z,1.50
2023-01-09T10:16:03.453Z,1.67
2023-01-09T10:18:34.888Z,1.43
2023-01-09T10:21:07.175Z,1.60
2023-01-09T10:23:47.577Z,1.53
2023-01-09T10:26:18.712Z,1.40
2023-01-09T10:29:06.799Z,1.60
2023-01-09T10:31:39.776Z,1.83
2023-01-09T10:34:13.680Z,1.57
2023-01-09T10:36:49.518Z,1.17
2023-01-09T10:39:19.514Z,2.33
2023-01-09T10:41:50.577Z,1.40
2023-01-09T10:44:21.417Z,1.57
2023-01-09T10:46:51.829Z,1.50
2023-01-09T10:49:19.032Z,1.80
2023-01-09T10:51:47.632Z,1.50
2023-01-09T10:54:15.691Z,1.30
2023-01-09T10:56:46.724Z,2.53
2023-01-09T10:59:13.918Z,1.80
2023-01-09T11:01:41.663Z,1.53
2023-01-09T11:04:18.024Z,1.90
2023-01-09T11:06:46.164Z,3.00
2023-01-09T11:09:13.288Z,1.60
2023-01-09T11:11:41.113Z,1.70
2023-01-09T11:14:14.615Z,1.77
2023-01-09T11:16:51.562Z,1.70
2023-01-09T11:19:18.719Z,1.83
2023-01-09T11:21:45.870Z,1.47
2023-01-09T11:24:27.111Z,1.70
2023-01-09T11:26:55.010Z,1.70
2023-01-09T11:29:23.767Z,1.87
2023-01-09T11:31:52.159Z,1.70
2023-01-09T11:34:21.403Z,2.07
2023-01-09T11:36:49.392Z,1.70
2023-01-09T11:39:22.314Z,1.20
2023-01-09T11:41:53.084Z,2.07
2023-01-09T11:44:20.271Z,1.10
2023-01-09T11:46:48.836Z,1.47
2023-01-09T11:49:22.809Z,2.00
2023-01-09T11:52:04.942Z,1.20
2023-01-09T11:54:33.237Z,1.60
2023-01-09T11:57:00.474Z,1.67
2023-01-09T11:59:29.087Z,1.73
2023-01-09T12:02:13.754Z,1.40
2023-01-09T12:04:42.314Z,1.47
2023-01-09T12:07:27.149Z,1.50
2023-01-09T12:09:58.841Z,1.50
2023-01-09T12:12:28.112Z,1.97
2023-01-09T12:15:05.529Z,1.50
2023-01-09T12:17:46.837Z,1.43
2023-01-09T12:20:46.993Z,2.20
2023-01-09T12:23:20.387Z,2.33
2023-01-09T12:25:52.168Z,2.07
2023-01-09T12:28:40.164Z,1.27
2023-01-09T12:31:15.076Z,1.93
2023-01-09T12:33:48.122Z,1.73
2023-01-09T12:36:18.613Z,1.90
2023-01-09T12:38:48.308Z,1.57
2023-01-09T12:41:24.061Z,1.70
2023-01-09T12:43:58.983Z,1.30
2023-01-09T12:46:28.460Z,1.60
2023-01-09T12:49:12.057Z,1.40
2023-01-09T12:51:41.868Z,1.40
2023-01-09T12:54:11.051Z,1.30
2023-01-09T12:56:40.216Z,1.33
2023-01-09T12:59:10.803Z,1.23
2023-01-09T13:01:42.861Z,1.40
2023-01-09T13:04:14.361Z,1.40
2023-01-09T13:06:44.534Z,1.50
2023-01-09T13:09:18.518Z,1.40
2023-01-09T13:11:48.025Z,2.40
2023-01-09T13:14:18.385Z,1.57
2023-01-09T13:16:47.999Z,1.70
2023-01-09T13:19:19.071Z,2.13
2023-01-09T13:21:46.520Z,2.20
2023-01-09T13:24:16.198Z,1.87
2023-01-09T13:26:44.404Z,1.97
2023-01-09T13:29:15.702Z,2.77
2023-01-09T13:31:57.368Z,1.90
2023-01-09T13:34:27.485Z,2.17
2023-01-09T13:36:56.123Z,2.30
2023-01-09T13:39:24.776Z,2.47
2023-01-09T13:41:54.322Z,1.70
2023-01-09T13:44:23.510Z,1.60
2023-01-09T13:46:52.531Z,2.10
2023-01-09T13:49:53.842Z,1.63
2023-01-09T13:52:31.158Z,2.57
2023-01-09T13:55:16.026Z,1.43
2023-01-09T13:57:43.713Z,1.83
2023-01-09T14:00:29.375Z,1.63
2023-01-09T14:02:57.038Z,1.93
2023-01-09T14:05:42.808Z,1.80
2023-01-09T14:08:13.263Z,1.87
2023-01-09T14:10:48.235Z,1.80
2023-01-09T14:13:16.640Z,2.90
2023-01-09T14:15:44.269Z,2.30
2023-01-09T14:18:16.163Z,2.23
2023-01-09T14:20:45.090Z,2.00
2023-01-09T14:23:41.862Z,2.17
2023-01-09T14:26:16.546Z,2.17
2023-01-09T14:28:43.652Z,1.80
2023-01-09T14:31:26.533Z,1.67
2023-01-09T14:34:24.149Z,1.60
2023-01-09T14:36:58.800Z,2.60
2023-01-09T14:39:27.668Z,2.00
2023-01-09T14:41:57.441Z,1.93
2023-01-09T14:44:28.324Z,2.40
2023-01-09T14:46:56.252Z,2.10
2023-01-09T14:49:28.617Z,1.90
2023-01-09T14:51:56.050Z,1.93
2023-01-09T14:54:27.945Z,1.90
2023-01-09T14:56:56.397Z,1.87
2023-01-09T14:59:23.513Z,2.63
2023-01-09T15:01:52.353Z,2.40
2023-01-09T15:04:23.344Z,2.30
2023-01-09T15:06:50.543Z,2.30
2023-01-09T15:09:19.946Z,2.40
2023-01-09T15:11:47.405Z,2.47
2023-01-09T15:14:20.074Z,2.30
2023-01-09T15:16:47.226Z,3.00
2023-01-09T15:19:14.947Z,2.60
2023-01-09T15:21:56.468Z,3.20
2023-01-09T15:24:24.417Z,1.90
2023-01-09T15:26:52.630Z,1.90
2023-01-09T15:29:21.071Z,2.17
2023-01-09T15:31:50.090Z,2.63
2023-01-09T15:34:20.033Z,2.03
2023-01-09T15:36:47.278Z,2.77
2023-01-09T15:39:16.213Z,2.10
2023-01-09T15:41:46.909Z,2.17
2023-01-09T15:44:16.608Z,2.70
2023-01-09T15:46:45.752Z,2.40
2023-01-09T15:49:13.611Z,2.30
2023-01-09T15:51:42.640Z,1.90
2023-01-09T15:54:10.783Z,2.70
2023-01-09T15:56:37.946Z,2.83
2023-01-09T15:59:17.597Z,2.50
2023-01-09T16:01:46.088Z,2.20
2023-01-09T16:04:13.875Z,4.03
2023-01-09T16:06:42.964Z,3.23
2023-01-09T16:09:15.735Z,2.97
2023-01-09T16:11:46.019Z,2.50
2023-01-09T16:14:14.572Z,2.50
2023-01-09T16:16:41.963Z,2.70
2023-01-09T16:19:24.149Z,2.20
2023-01-09T16:21:58.382Z,2.50
2023-01-09T16:24:26.576Z,2.30
2023-01-09T16:26:53.815Z,3.50
2023-01-09T16:29:27.428Z,2.30
2023-01-09T16:31:59.033Z,2.70
2023-01-09T16:34:26.213Z,2.77
2023-01-09T16:36:53.377Z,3.10
2023-01-09T16:39:21.857Z,3.70
2023-01-09T16:41:48.999Z,3.00
2023-01-09T16:44:16.125Z,3.23
2023-01-09T16:46:44.796Z,2.27
2023-01-09T16:49:16.698Z,2.83
2023-01-09T16:51:43.888Z,3.90
2023-01-09T16:54:10.988Z,2.73
2023-01-09T16:56:39.957Z,3.03
2023-01-09T16:59:11.277Z,3.37
2023-01-09T17:01:38.427Z,2.87
2023-01-09T17:04:10.031Z,3.27
2023-01-09T17:06:37.169Z,2.50
2023-01-09T17:09:04.354Z,2.63
2023-01-09T17:11:31.778Z,2.77
2023-01-09T17:14:00.707Z,2.60
2023-01-09T17:16:28.580Z,2.90
2023-01-09T17:18:55.822Z,2.90
2023-01-09T17:21:23.711Z,2.60
2023-01-09T17:23:51.197Z,2.70
2023-01-09T17:26:19.679Z,3.20
2023-01-09T17:28:47.538Z,3.20
2023-01-09T17:31:16.063Z,2.77
2023-01-09T17:33:43.303Z,2.87
2023-01-09T17:36:27.057Z,3.50
2023-01-09T17:38:54.266Z,3.33
2023-01-09T17:41:21.535Z,3.20
2023-01-09T17:43:48.656Z,3.37
2023-01-09T17:46:19.001Z,3.50
2023-01-09T17:48:46.155Z,3.40
2023-01-09T17:51:13.253Z,3.60
2023-01-09T17:53:40.383Z,3.60
2023-01-09T17:56:10.075Z,3.27
2023-01-09T17:58:37.193Z,3.80
2023-01-09T18:01:04.374Z,3.37
2023-01-09T18:03:32.809Z,4.10
2023-01-09T18:06:00.239Z,3.57
2023-01-09T18:08:27.350Z,3.40
2023-01-09T18:10:54.707Z,3.30
2023-01-09T18:13:22.210Z,3.10
2023-01-09T18:15:49.345Z,3.30
2023-01-09T18:18:16.487Z,4.10
2023-01-09T18:20:45.431Z,4.10
2023-01-09T18:23:12.816Z,3.67
2023-01-09T18:25:40.524Z,3.80
2023-01-09T18:28:07.667Z,3.20
2023-01-09T18:30:34.774Z,3.63
2023-01-09T18:33:01.900Z,3.70
2023-01-09T18:35:28.989Z,4.40
2023-01-09T18:37:57.452Z,3.63
2023-01-09T18:40:24.556Z,3.83
2023-01-09T18:42:51.698Z,4.10
2023-01-09T18:45:18.930Z,3.90
2023-01-09T18:47:46.051Z,3.70
2023-01-09T18:50:13.362Z,4.07
2023-01-09T18:52:40.467Z,4.43
2023-01-09T18:55:09.611Z,4.23
2023-01-09T18:57:36.712Z,3.10
2023-01-09T19:00:04.100Z,3.70
2023-01-09T19:02:31.201Z,3.70
2023-01-09T19:04:58.279Z,4.97
2023-01-09T19:07:25.446Z,3.80
2023-01-09T19:09:52.591Z,4.80
2023-01-09T19:12:21.056Z,3.97
2023-01-09T19:14:48.159Z,4.00
2023-01-09T19:17:15.278Z,5.03
2023-01-09T19:19:42.377Z,5.30
2023-01-09T19:22:09.510Z,5.03
2023-01-09T19:24:36.672Z,4.80
2023-01-09T19:27:03.865Z,4.30
2023-01-09T19:29:32.322Z,4.60
2023-01-09T19:31:59.546Z,5.23
2023-01-09T19:34:26.871Z,6.00
2023-01-09T19:36:54.084Z,4.93
2023-01-09T19:39:21.259Z,5.53
2023-01-09T19:41:48.375Z,5.10
2023-01-09T19:44:15.586Z,4.77
2023-01-09T19:46:44.043Z,5.30
2023-01-09T19:49:11.203Z,4.57
2023-01-09T19:51:38.328Z,5.43
2023-01-09T19:54:08.567Z,7.20
2023-01-09T19:56:35.709Z,5.77
2023-01-09T19:59:04.202Z,6.10
2023-01-09T20:01:32.858Z,5.60
2023-01-09T20:04:02.144Z,5.83
2023-01-09T20:06:29.661Z,6.30
2023-01-09T20:08:57.716Z,5.53
2023-01-09T20:11:25.629Z,6.20
2023-01-09T20:13:53.066Z,6.80
2023-01-09T20:16:21.801Z,5.80
2023-01-09T20:18:48.957Z,6.03
2023-01-09T20:21:18.649Z,6.70
2023-01-09T20:23:45.767Z,5.03
2023-01-09T20:26:12.928Z,5.70
2023-01-09T20:28:40.096Z,5.50
2023-01-09T20:31:09.642Z,6.50
2023-01-09T20:33:36.756Z,5.73
2023-01-09T20:36:04.223Z,6.40
2023-01-09T20:38:32.731Z,6.20
2023-01-09T20:41:06.432Z,6.13
2023-01-09T20:43:33.526Z,7.30
2023-01-09T20:46:02.358Z,8.30
2023-01-09T20:48:29.479Z,6.40
2023-01-09T20:50:56.592Z,6.50
2023-01-09T20:53:23.725Z,5.90
2023-01-09T20:55:52.163Z,5.83
2023-01-09T20:58:19.268Z,6.63
2023-01-09T21:00:46.420Z,5.53
2023-01-09T21:03:13.529Z,5.53
2023-01-09T21:05:40.883Z,6.30
2023-01-09T21:08:07.975Z,5.30
2023-01-09T21:10:35.110Z,6.07
2023-01-09T21:13:03.554Z,5.40
2023-01-09T21:15:30.684Z,3.93
2023-01-09T21:17:57.768Z,4.57
2023-01-09T21:20:24.939Z,4.80
2023-01-09T21:22:52.040Z,4.47
2023-01-09T21:25:19.210Z,3.90
2023-01-09T21:27:46.414Z,4.30
2023-01-09T21:30:14.983Z,4.27
2023-01-09T21:32:42.176Z,4.07
2023-01-09T21:35:09.455Z,3.93
2023-01-09T21:37:37.740Z,3.23
2023-01-09T21:40:05.267Z,4.30
2023-01-09T21:42:32.390Z,4.20
2023-01-09T21:44:59.485Z,3.87
2023-01-09T21:47:27.948Z,3.23
2023-01-09T21:49:55.068Z,3.40
2023-01-09T21:52:22.251Z,3.33
2023-01-09T21:54:49.362Z,3.33
2023-01-09T21:57:16.499Z,2.93
2023-01-09T21:59:43.913Z,3.43
2023-01-09T22:02:11.878Z,3.37
2023-01-09T22:04:40.580Z,3.30
2023-01-09T22:07:07.699Z,2.80
2023-01-09T22:09:34.811Z,3.63
2023-01-09T22:12:01.923Z,3.20
2023-01-09T22:14:29.020Z,3.80
2023-01-09T22:16:56.136Z,3.63
2023-01-09T22:19:23.253Z,3.80
2023-01-09T22:21:51.716Z,4.20
2023-01-09T22:24:19.208Z,4.77
2023-01-09T22:26:46.739Z,5.57
2023-01-09T22:29:14.003Z,6.43
2023-01-09T22:31:41.165Z,6.67
2023-01-09T22:34:08.413Z,6.97
2023-01-09T22:36:35.660Z,7.10
2023-01-09T22:39:04.413Z,6.73
2023-01-09T22:41:31.519Z,7.97
2023-01-09T22:43:58.701Z,5.93
2023-01-09T22:46:26.244Z,7.30
2023-01-09T22:48:53.380Z,7.13
2023-01-09T22:51:21.169Z,7.30
2023-01-09T22:53:48.392Z,7.30
2023-01-09T22:56:17.895Z,7.90
2023-01-09T22:58:45.340Z,7.60
2023-01-09T23:01:12.972Z,8.23
2023-01-09T23:03:40.170Z,5.97
2023-01-09T23:06:08.496Z,7.00
2023-01-09T23:08:35.929Z,6.97
2023-01-09T23:11:03.680Z,6.77
2023-01-09T23:13:32.515Z,7.40
2023-01-09T23:16:00.215Z,6.23
2023-01-09T23:18:27.325Z,6.23
2023-01-09T23:20:55.497Z,6.27
2023-01-09T23:23:23.413Z,6.30
2023-01-09T23:25:50.720Z,5.73
2023-01-09T23:28:17.827Z,5.33
2023-01-09T23:30:46.351Z,5.50
2023-01-09T23:33:13.681Z,5.80
2023-01-09T23:35:40.837Z,4.53
2023-01-09T23:38:07.995Z,5.23
2023-01-09T23:40:35.908Z,5.70
2023-01-09T23:43:03.017Z,4.90
2023-01-09T23:45:30.243Z,5.50
2023-01-09T23:47:58.697Z,5.50
2023-01-09T23:50:25.850Z,4.63
2023-01-09T23:52:52.971Z,4.70
2023-01-09T23:55:20.059Z,4.90
2023-01-09T23:57:47.167Z,4.40
